createdAt,value
2022-09-23T00:02:16.637Z,79.99
2022-09-23T00:04:48.137Z,80.03
2022-09-23T00:07:19.559Z,79.90
2022-09-23T00:09:51.288Z,79.98
2022-09-23T00:12:22.801Z,79.93
2022-09-23T00:14:54.357Z,79.36
2022-09-23T00:17:27.242Z,79.13
2022-09-23T00:19:58.789Z,79.57
2022-09-23T00:22:28.777Z,79.43
2022-09-23T00:25:00.256Z,79.42
2022-09-23T00:27:33.147Z,79.38
2022-09-23T00:30:05.868Z,79.35
2022-09-23T00:32:37.984Z,79.56
2022-09-23T00:35:10.690Z,79.81
2022-09-23T00:37:42.562Z,80.18
2022-09-23T00:40:14.166Z,80.21
2022-09-23T00:42:51.122Z,79.99
2022-09-23T00:45:22.542Z,79.97
2022-09-23T00:47:57.780Z,79.84
2022-09-23T00:50:32.211Z,80.25
2022-09-23T00:53:06.634Z,80.09
2022-09-23T00:55:43.256Z,80.20
2022-09-23T00:58:19.416Z,79.95
2022-09-23T01:00:50.879Z,79.65
2022-09-23T01:03:23.004Z,79.97
2022-09-23T01:05:55.315Z,80.00
2022-09-23T01:08:28.468Z,79.83
2022-09-23T01:11:11.121Z,79.90
2022-09-23T01:13:54.384Z,80.03
2022-09-23T01:16:34.648Z,80.06
2022-09-23T01:19:24.041Z,79.81
2022-09-23T01:22:05.810Z,79.84
2022-09-23T01:24:59.513Z,79.75
2022-09-23T01:27:42.957Z,79.61
2022-09-23T01:30:46.311Z,79.40
2022-09-23T01:33:26.266Z,79.64
2022-09-23T01:36:11.729Z,79.33
2022-09-23T01:38:53.671Z,79.38
2022-09-23T01:41:43.949Z,79.55
2022-09-23T01:44:22.916Z,79.58
2022-09-23T01:46:58.093Z,79.63
2022-09-23T01:49:34.728Z,79.74
2022-09-23T01:52:38.732Z,79.71
2022-09-23T01:55:17.194Z,79.95
2022-09-23T01:57:56.253Z,79.79
2022-09-23T02:00:30.657Z,79.38
2022-09-23T02:03:05.893Z,78.98
2022-09-23T02:05:44.012Z,78.80
2022-09-23T02:08:19.172Z,79.02
2022-09-23T02:10:56.180Z,79.42
2022-09-23T02:13:32.622Z,79.47
2022-09-23T02:16:11.800Z,79.65
2022-09-23T02:18:48.626Z,79.55
2022-09-23T02:21:24.381Z,79.86
2022-09-23T02:24:03.133Z,80.13
2022-09-23T02:26:38.404Z,79.91
2022-09-23T02:29:19.498Z,79.87
2022-09-23T02:31:59.089Z,79.71
2022-09-23T02:34:43.874Z,79.46
2022-09-23T02:37:24.726Z,79.56
2022-09-23T02:40:02.930Z,79.43
2022-09-23T02:42:41.193Z,79.42
2022-09-23T02:45:12.644Z,79.63
2022-09-23T02:47:47.754Z,79.41
2022-09-23T02:50:19.548Z,79.29
2022-09-23T02:52:51.518Z,79.12
2022-09-23T02:55:26.236Z,78.92
2022-09-23T02:57:57.967Z,78.89
2022-09-23T03:00:36.411Z,79.13
2022-09-23T03:03:24.117Z,79.24
2022-09-23T03:05:59.671Z,79.25
2022-09-23T03:08:44.650Z,79.14
2022-09-23T03:11:17.595Z,79.05
2022-09-23T03:14:05.113Z,79.12
2022-09-23T03:16:43.713Z,79.17
2022-09-23T03:19:24.467Z,79.00
2022-09-23T03:22:05.347Z,78.91
2022-09-23T03:24:39.995Z,78.59
2022-09-23T03:27:16.549Z,78.44
2022-09-23T03:29:50.070Z,78.78
2022-09-23T03:32:24.377Z,79.16
2022-09-23T03:34:58.860Z,79.52
2022-09-23T03:37:34.844Z,79.35
2022-09-23T03:40:14.680Z,79.28
2022-09-23T03:42:48.982Z,79.52
2022-09-23T03:45:23.769Z,79.56
2022-09-23T03:47:55.713Z,79.37
2022-09-23T03:50:27.552Z,79.44
2022-09-23T03:52:59.586Z,79.74
2022-09-23T03:55:32.133Z,79.64
2022-09-23T03:58:04.754Z,79.81
2022-09-23T04:00:37.148Z,80.07
2022-09-23T04:03:11.762Z,80.26
2022-09-23T04:05:43.534Z,80.28
2022-09-23T04:08:14.986Z,80.41
2022-09-23T04:10:46.971Z,80.38
2022-09-23T04:13:19.256Z,80.41
2022-09-23T04:15:53.473Z,80.59
2022-09-23T04:18:25.096Z,80.74
2022-09-23T04:20:59.668Z,80.61
2022-09-23T04:23:31.565Z,80.74
2022-09-23T04:26:02.954Z,80.94
2022-09-23T04:28:34.413Z,80.48
2022-09-23T04:31:09.357Z,80.66
2022-09-23T04:33:41.073Z,80.68
2022-09-23T04:36:12.623Z,80.83
2022-09-23T04:38:45.977Z,80.82
2022-09-23T04:41:18.876Z,80.81
2022-09-23T04:43:50.343Z,80.44
2022-09-23T04:46:21.885Z,80.29
2022-09-23T04:48:51.910Z,80.25
2022-09-23T04:51:25.772Z,80.38
2022-09-23T04:53:57.689Z,80.43
2022-09-23T04:56:32.561Z,80.38
2022-09-23T04:59:04.163Z,80.52
2022-09-23T05:01:36.297Z,80.45
2022-09-23T05:04:14.091Z,80.60
2022-09-23T05:06:45.805Z,80.73
2022-09-23T05:09:17.776Z,80.29
2022-09-23T05:11:48.485Z,80.37
2022-09-23T05:14:20.131Z,79.66
2022-09-23T05:16:50.092Z,80.11
2022-09-23T05:19:22.220Z,80.46
2022-09-23T05:21:53.670Z,80.40
2022-09-23T05:24:26.222Z,80.70
2022-09-23T05:26:57.720Z,80.89
2022-09-23T05:29:27.945Z,80.79
2022-09-23T05:31:59.833Z,81.14
2022-09-23T05:34:32.262Z,80.64
2022-09-23T05:37:04.377Z,80.56
2022-09-23T05:39:35.805Z,80.62
2022-09-23T05:42:07.973Z,80.38
2022-09-23T05:44:40.118Z,80.79
2022-09-23T05:47:11.582Z,80.78
2022-09-23T05:49:59.271Z,80.47
2022-09-23T05:52:31.533Z,80.70
2022-09-23T05:55:03.245Z,80.56
2022-09-23T05:57:34.765Z,80.56
2022-09-23T06:00:10.531Z,80.74
2022-09-23T06:02:43.546Z,80.56
2022-09-23T06:05:15.720Z,80.52
2022-09-23T06:07:47.159Z,80.65
2022-09-23T06:10:18.942Z,80.48
2022-09-23T06:12:50.436Z,80.38
2022-09-23T06:15:21.907Z,80.55
2022-09-23T06:17:53.357Z,80.36
2022-09-23T06:20:24.796Z,80.25
2022-09-23T06:22:58.149Z,79.97
2022-09-23T06:25:29.634Z,79.13
2022-09-23T06:28:01.156Z,78.87
2022-09-23T06:30:31.178Z,78.63
2022-09-23T06:33:03.031Z,79.02
2022-09-23T06:35:33.456Z,79.25
2022-09-23T06:38:06.605Z,79.31
2022-09-23T06:40:38.281Z,79.64
2022-09-23T06:43:08.298Z,80.22
2022-09-23T06:45:39.818Z,80.59
2022-09-23T06:48:11.447Z,80.56
2022-09-23T06:50:41.457Z,80.34
2022-09-23T06:53:13.429Z,80.58
2022-09-23T06:55:45.378Z,80.52
2022-09-23T06:58:17.044Z,80.37
2022-09-23T07:00:48.471Z,79.93
2022-09-23T07:03:20.949Z,79.72
2022-09-23T07:05:57.005Z,79.31
2022-09-23T07:08:30.281Z,79.70
2022-09-23T07:11:03.283Z,79.19
2022-09-23T07:13:37.017Z,78.25
2022-09-23T07:16:09.611Z,78.47
2022-09-23T07:18:41.483Z,78.45
2022-09-23T07:21:15.231Z,78.60
2022-09-23T07:23:48.290Z,78.94
2022-09-23T07:26:20.851Z,79.12
2022-09-23T07:28:56.389Z,79.15
2022-09-23T07:31:38.722Z,79.61
2022-09-23T07:34:12.152Z,79.65
2022-09-23T07:36:43.955Z,79.74
2022-09-23T07:39:14.299Z,78.88
2022-09-23T07:41:45.694Z,78.48
2022-09-23T07:44:17.928Z,77.97
2022-09-23T07:46:50.020Z,77.93
2022-09-23T07:49:21.569Z,77.77
2022-09-23T07:51:52.806Z,77.69
2022-09-23T07:54:25.480Z,77.32
2022-09-23T07:56:57.112Z,77.09
2022-09-23T07:59:28.656Z,76.58
2022-09-23T08:01:58.681Z,76.85
2022-09-23T08:04:33.143Z,76.29
2022-09-23T08:07:06.721Z,75.71
2022-09-23T08:09:41.842Z,75.50
2022-09-23T08:12:16.454Z,75.11
2022-09-23T08:14:47.970Z,75.30
2022-09-23T08:17:17.923Z,74.90
2022-09-23T08:19:49.361Z,73.92
2022-09-23T08:22:19.830Z,74.07
2022-09-23T08:24:53.034Z,74.09
2022-09-23T08:27:28.078Z,74.18
2022-09-23T08:29:59.581Z,74.60
2022-09-23T08:32:31.755Z,74.58
2022-09-23T08:35:03.216Z,74.32
2022-09-23T08:37:33.183Z,74.45
2022-09-23T08:40:05.268Z,74.19
2022-09-23T08:42:40.073Z,73.12
2022-09-23T08:45:18.473Z,72.26
2022-09-23T08:47:54.871Z,72.23
2022-09-23T08:50:29.809Z,71.56
2022-09-23T08:53:04.516Z,71.47
2022-09-23T08:55:42.680Z,70.76
2022-09-23T08:58:30.909Z,70.92
2022-09-23T09:01:11.603Z,70.63
2022-09-23T09:03:50.491Z,70.18
2022-09-23T09:06:27.059Z,70.10
2022-09-23T09:09:02.108Z,69.98
2022-09-23T09:11:38.122Z,69.43
2022-09-23T09:14:19.566Z,69.87
2022-09-23T09:16:59.965Z,68.82
2022-09-23T09:19:56.713Z,67.80
2022-09-23T09:22:42.909Z,67.83
2022-09-23T09:25:24.835Z,67.51
2022-09-23T09:27:58.413Z,67.98
2022-09-23T09:30:30.587Z,67.38
2022-09-23T09:33:06.806Z,66.59
2022-09-23T09:35:43.322Z,66.25
2022-09-23T09:38:15.273Z,66.08
2022-09-23T09:40:49.688Z,64.11
2022-09-23T09:43:23.352Z,64.57
2022-09-23T09:46:08.312Z,64.34
2022-09-23T09:48:50.731Z,64.36
2022-09-23T09:51:24.824Z,64.61
2022-09-23T09:54:16.226Z,63.68
2022-09-23T09:59:29.278Z,61.83
2022-09-23T10:05:04.663Z,60.62
2022-09-23T10:07:36.821Z,62.04
2022-09-23T10:10:36.501Z,62.52
2022-09-23T10:13:20.540Z,62.38
2022-09-23T10:15:54.756Z,61.19
2022-09-23T10:18:33.575Z,60.75
2022-09-23T10:21:12.096Z,60.76
2022-09-23T10:23:46.441Z,60.22
2022-09-23T10:26:18.417Z,60.35
2022-09-23T10:28:51.863Z,58.77
2022-09-23T10:31:26.684Z,58.10
2022-09-23T10:34:00.668Z,57.59
2022-09-23T10:36:33.884Z,56.84
2022-09-23T10:39:24.841Z,57.29
2022-09-23T10:42:21.867Z,57.36
2022-09-23T10:45:24.751Z,56.42
2022-09-23T10:48:05.724Z,56.00
2022-09-23T10:50:42.991Z,56.80
2022-09-23T10:53:24.062Z,57.01
2022-09-23T10:56:16.781Z,56.40
2022-09-23T10:59:09.206Z,56.44
2022-09-23T11:01:49.625Z,54.89
2022-09-23T11:04:41.742Z,54.44
2022-09-23T11:07:28.100Z,54.57
2022-09-23T11:10:29.284Z,54.62
2022-09-23T11:13:17.115Z,55.39
2022-09-23T11:16:00.875Z,55.98
2022-09-23T11:18:52.214Z,55.89
2022-09-23T11:21:39.534Z,56.29
2022-09-23T11:24:28.016Z,56.79
2022-09-23T11:27:09.078Z,56.68
2022-09-23T11:30:02.583Z,54.63
2022-09-23T11:32:52.649Z,54.30
2022-09-23T11:35:28.843Z,53.80
2022-09-23T11:38:12.340Z,54.27
2022-09-23T11:40:47.370Z,55.16
2022-09-23T11:43:23.476Z,54.67
2022-09-23T11:46:02.101Z,53.71
2022-09-23T11:48:41.272Z,53.32
2022-09-23T11:51:17.868Z,53.03
2022-09-23T11:53:54.721Z,53.78
2022-09-23T11:56:36.013Z,53.70
2022-09-23T11:59:17.072Z,53.38
2022-09-23T12:01:52.731Z,53.82
2022-09-23T12:04:31.177Z,53.23
2022-09-23T12:07:09.657Z,54.04
2022-09-23T12:09:58.819Z,53.44
2022-09-23T12:12:36.698Z,52.37
2022-09-23T12:15:20.325Z,52.77
2022-09-23T12:18:11.075Z,51.75
2022-09-23T12:20:54.771Z,50.67
2022-09-23T12:23:44.105Z,49.94
2022-09-23T12:26:20.110Z,50.36
2022-09-23T12:28:55.479Z,50.70
2022-09-23T12:31:33.066Z,50.63
2022-09-23T12:34:23.201Z,50.05
2022-09-23T12:36:54.717Z,49.94
2022-09-23T12:39:31.306Z,50.59
2022-09-23T12:42:04.219Z,50.47
2022-09-23T12:44:41.149Z,51.01
2022-09-23T12:47:39.025Z,51.10
2022-09-23T12:50:45.264Z,50.90
2022-09-23T12:53:54.650Z,50.50
2022-09-23T12:56:29.864Z,50.36
2022-09-23T12:59:21.669Z,49.94
2022-09-23T13:01:53.918Z,50.88
2022-09-23T13:05:01.508Z,49.75
2022-09-23T13:07:34.799Z,50.40
2022-09-23T13:10:16.533Z,50.47
2022-09-23T13:12:49.201Z,50.20
2022-09-23T13:15:28.691Z,50.61
2022-09-23T13:18:50.362Z,50.63
2022-09-23T13:22:13.675Z,50.50
2022-09-23T13:24:53.404Z,50.05
2022-09-23T13:27:31.183Z,49.82
2022-09-23T13:30:07.803Z,49.29
2022-09-23T13:32:46.011Z,48.68
2022-09-23T13:35:26.723Z,48.60
2022-09-23T13:37:58.286Z,48.55
2022-09-23T13:40:31.687Z,48.41
2022-09-23T13:43:06.466Z,48.19
2022-09-23T13:45:43.206Z,48.67
2022-09-23T13:48:16.544Z,49.37
2022-09-23T13:50:51.037Z,49.53
2022-09-23T13:53:27.367Z,49.45
2022-09-23T13:56:07.882Z,49.74
2022-09-23T13:58:40.225Z,50.23
2022-09-23T14:01:22.532Z,50.21
2022-09-23T14:03:54.104Z,50.73
2022-09-23T14:06:27.312Z,50.37
2022-09-23T14:09:02.298Z,50.17
2022-09-23T14:11:35.941Z,50.50
2022-09-23T14:14:14.515Z,50.23
2022-09-23T14:16:46.437Z,50.90
2022-09-23T14:19:21.067Z,51.18
2022-09-23T14:21:54.282Z,52.00
2022-09-23T14:24:32.500Z,52.91
2022-09-23T14:27:15.094Z,53.55
2022-09-23T14:29:49.326Z,52.13
2022-09-23T14:32:24.986Z,52.22
2022-09-23T14:35:17.025Z,52.01
2022-09-23T14:38:08.664Z,51.56
2022-09-23T14:40:39.749Z,51.72
2022-09-23T14:43:23.189Z,51.72
2022-09-23T14:45:56.516Z,52.08
2022-09-23T14:48:31.638Z,51.80
2022-09-23T14:51:06.031Z,51.83
2022-09-23T14:53:40.858Z,51.95
2022-09-23T14:56:16.765Z,52.53
2022-09-23T14:58:53.033Z,51.44
2022-09-23T15:01:39.691Z,51.34
2022-09-23T15:04:18.178Z,52.96
2022-09-23T15:06:54.314Z,54.72
2022-09-23T15:09:29.795Z,55.87
2022-09-23T15:12:04.689Z,56.71
2022-09-23T15:14:41.268Z,57.34
2022-09-23T15:17:25.902Z,57.80
2022-09-23T15:19:59.728Z,58.27
2022-09-23T15:22:31.357Z,58.63
2022-09-23T15:25:18.784Z,59.14
2022-09-23T15:28:02.450Z,59.34
2022-09-23T15:30:35.956Z,59.74
2022-09-23T15:33:09.731Z,60.06
2022-09-23T15:35:49.190Z,60.54
2022-09-23T15:38:21.099Z,60.73
2022-09-23T15:40:52.654Z,61.00
2022-09-23T15:43:26.694Z,61.27
2022-09-23T15:46:01.090Z,61.64
2022-09-23T15:48:39.486Z,62.02
2022-09-23T15:51:15.227Z,62.11
2022-09-23T15:53:47.849Z,62.23
2022-09-23T15:56:19.341Z,62.31
2022-09-23T15:58:49.521Z,62.60
2022-09-23T16:01:28.802Z,63.15
2022-09-23T16:04:01.769Z,63.36
2022-09-23T16:06:36.049Z,63.49
2022-09-23T16:09:08.246Z,63.88
2022-09-23T16:11:42.095Z,63.77
2022-09-23T16:14:16.567Z,64.00
2022-09-23T16:16:48.490Z,64.17
2022-09-23T16:19:20.070Z,64.43
2022-09-23T16:21:50.096Z,64.54
2022-09-23T16:24:26.005Z,64.71
2022-09-23T16:27:03.451Z,64.88
2022-09-23T16:29:34.971Z,65.05
2022-09-23T16:32:04.994Z,65.09
2022-09-23T16:34:36.489Z,65.40
2022-09-23T16:37:07.147Z,65.56
2022-09-23T16:39:38.955Z,65.80
2022-09-23T16:42:10.913Z,65.94
2022-09-23T16:44:42.520Z,65.93
2022-09-23T16:47:14.244Z,66.15
2022-09-23T16:49:45.833Z,66.08
2022-09-23T16:52:20.167Z,66.37
2022-09-23T16:54:52.442Z,66.54
2022-09-23T16:57:24.137Z,66.63
2022-09-23T17:00:13.769Z,66.95
2022-09-23T17:03:02.963Z,67.27
2022-09-23T17:05:34.688Z,67.40
2022-09-23T17:08:07.654Z,67.59
2022-09-23T17:10:39.190Z,67.33
2022-09-23T17:13:12.797Z,67.58
2022-09-23T17:15:45.103Z,67.70
2022-09-23T17:18:19.497Z,67.84
2022-09-23T17:21:02.053Z,68.06
2022-09-23T17:23:37.533Z,68.08
2022-09-23T17:26:09.821Z,67.93
2022-09-23T17:28:41.510Z,68.34
2022-09-23T17:31:13.264Z,68.45
2022-09-23T17:33:45.156Z,68.68
2022-09-23T17:36:19.625Z,68.91
2022-09-23T17:38:53.634Z,69.05
2022-09-23T17:41:25.619Z,69.16
2022-09-23T17:44:00.789Z,69.24
2022-09-23T17:46:32.604Z,69.33
2022-09-23T17:49:05.622Z,69.30
2022-09-23T17:51:37.600Z,69.42
2022-09-23T17:54:10.311Z,69.69
2022-09-23T17:56:42.518Z,69.50
2022-09-23T17:59:14.744Z,69.39
2022-09-23T18:01:46.738Z,69.79
2022-09-23T18:04:18.588Z,69.97
2022-09-23T18:06:51.494Z,70.22
2022-09-23T18:09:30.624Z,70.43
2022-09-23T18:12:02.871Z,70.60
2022-09-23T18:14:37.074Z,70.34
2022-09-23T18:17:09.596Z,70.23
2022-09-23T18:19:42.597Z,70.67
2022-09-23T18:22:15.146Z,70.88
2022-09-23T18:24:47.375Z,70.93
2022-09-23T18:27:19.296Z,70.78
2022-09-23T18:29:51.551Z,70.61
2022-09-23T18:32:23.324Z,70.79
2022-09-23T18:34:55.400Z,71.19
2022-09-23T18:37:27.707Z,71.57
2022-09-23T18:39:59.713Z,71.87
2022-09-23T18:42:32.348Z,71.83
2022-09-23T18:45:04.761Z,71.91
2022-09-23T18:47:54.179Z,71.60
2022-09-23T18:50:42.246Z,71.79
2022-09-23T18:53:14.106Z,71.76
2022-09-23T18:55:45.921Z,71.81
2022-09-23T18:58:17.829Z,71.85
2022-09-23T19:00:51.515Z,71.65
2022-09-23T19:03:23.452Z,71.72
2022-09-23T19:05:55.442Z,72.04
2022-09-23T19:08:27.327Z,71.81
2022-09-23T19:11:01.679Z,71.55
2022-09-23T19:13:35.065Z,71.87
2022-09-23T19:16:11.942Z,72.04
2022-09-23T19:18:46.469Z,72.35
2022-09-23T19:21:23.118Z,72.01
2022-09-23T19:23:57.328Z,71.95
2022-09-23T19:26:32.162Z,71.72
2022-09-23T19:29:06.336Z,71.99
2022-09-23T19:31:40.881Z,72.03
2022-09-23T19:34:17.812Z,72.59
2022-09-23T19:36:50.679Z,72.83
2022-09-23T19:39:24.406Z,72.54
2022-09-23T19:41:57.622Z,72.20
2022-09-23T19:44:32.628Z,72.51
2022-09-23T19:47:04.908Z,72.77
2022-09-23T19:49:36.714Z,73.16
2022-09-23T19:52:08.460Z,73.18
2022-09-23T19:54:40.606Z,73.03
2022-09-23T19:57:12.628Z,72.62
2022-09-23T19:59:45.601Z,73.00
2022-09-23T20:02:18.010Z,73.25
2022-09-23T20:04:51.949Z,73.21
2022-09-23T20:07:23.820Z,73.36
2022-09-23T20:09:56.376Z,73.19
2022-09-23T20:12:29.198Z,72.80
2022-09-23T20:15:01.215Z,72.96
2022-09-23T20:17:33.034Z,73.50
2022-09-23T20:20:05.483Z,73.60
2022-09-23T20:22:37.034Z,73.67
2022-09-23T20:25:13.455Z,73.58
2022-09-23T20:27:49.484Z,73.83
2022-09-23T20:30:21.727Z,73.75
2022-09-23T20:32:53.413Z,73.72
2022-09-23T20:35:23.538Z,73.30
2022-09-23T20:37:55.231Z,73.06
2022-09-23T20:40:25.259Z,73.01
2022-09-23T20:42:56.804Z,73.15
2022-09-23T20:45:28.261Z,73.64
2022-09-23T20:48:00.725Z,73.79
2022-09-23T20:50:32.213Z,73.68
2022-09-23T20:53:03.650Z,74.02
2022-09-23T20:55:35.291Z,73.77
2022-09-23T20:58:05.403Z,73.95
2022-09-23T21:00:38.634Z,74.40
2022-09-23T21:03:10.389Z,74.09
2022-09-23T21:05:42.481Z,74.14
2022-09-23T21:08:13.999Z,74.13
2022-09-23T21:10:53.801Z,74.28
2022-09-23T21:13:25.736Z,74.46
2022-09-23T21:15:58.206Z,74.95
2022-09-23T21:18:29.892Z,75.14
2022-09-23T21:21:01.068Z,75.02
2022-09-23T21:23:34.628Z,74.74
2022-09-23T21:26:08.084Z,75.00
2022-09-23T21:28:41.602Z,75.38
2022-09-23T21:31:22.629Z,75.63
2022-09-23T21:33:59.037Z,75.87
2022-09-23T21:36:32.722Z,75.43
2022-09-23T21:39:05.442Z,75.13
2022-09-23T21:41:37.744Z,74.80
2022-09-23T21:44:09.454Z,75.03
2022-09-23T21:46:39.592Z,75.17
2022-09-23T21:49:11.075Z,75.22
2022-09-23T21:51:43.186Z,75.32
2022-09-23T21:54:17.510Z,75.23
2022-09-23T21:56:49.056Z,75.57
2022-09-23T21:59:20.476Z,75.74
2022-09-23T22:01:54.203Z,75.81
2022-09-23T22:04:26.023Z,76.02
2022-09-23T22:06:59.220Z,76.15
2022-09-23T22:09:30.998Z,76.40
2022-09-23T22:12:11.162Z,76.61
2022-09-23T22:14:43.349Z,76.63
2022-09-23T22:17:16.491Z,76.91
2022-09-23T22:19:48.785Z,76.95
2022-09-23T22:22:20.592Z,76.95
2022-09-23T22:24:52.318Z,77.16
2022-09-23T22:27:23.608Z,77.16
2022-09-23T22:30:13.006Z,77.33
2022-09-23T22:32:52.812Z,76.69
2022-09-23T22:35:25.881Z,76.58
2022-09-23T22:37:57.340Z,76.28
2022-09-23T22:40:28.933Z,76.40
2022-09-23T22:42:58.971Z,76.64
2022-09-23T22:45:30.418Z,77.11
2022-09-23T22:48:05.074Z,77.14
2022-09-23T22:50:39.682Z,77.33
2022-09-23T22:53:11.169Z,77.19
2022-09-23T22:55:43.009Z,76.50
2022-09-23T22:58:31.140Z,76.28
2022-09-23T23:01:03.581Z,76.31
2022-09-23T23:03:36.616Z,76.23
2022-09-23T23:06:10.599Z,76.33
2022-09-23T23:08:42.103Z,76.53
2022-09-23T23:11:13.660Z,76.61
2022-09-23T23:13:43.724Z,76.50
2022-09-23T23:16:15.405Z,76.72
2022-09-23T23:18:47.708Z,76.88
2022-09-23T23:21:21.603Z,76.89
2022-09-23T23:23:54.168Z,76.89
2022-09-23T23:26:27.915Z,76.72
2022-09-23T23:28:59.870Z,76.87
2022-09-23T23:31:33.152Z,77.25
2022-09-23T23:34:04.725Z,77.46
2022-09-23T23:36:37.172Z,77.68
2022-09-23T23:39:08.964Z,77.87
2022-09-23T23:41:41.617Z,77.45
2022-09-23T23:44:14.823Z,77.19
2022-09-23T23:46:46.325Z,77.05
2022-09-23T23:49:16.497Z,77.14
2022-09-23T23:51:48.021Z,77.31
2022-09-23T23:54:23.072Z,77.26
2022-09-23T23:56:55.212Z,77.70
2022-09-23T23:59:28.770Z,77.68
